^^
Datos históricos de la estación: Murcia-Puente Tocinos
Diario Informe para Octubre 20, 2019 Unidades:  Métrico    Ingés   Ambas
Diario Semanal Mensual Anual
  Máxima: Mínima: Promedio:
Temperatura: 20.2 °C 15.7 °C 18.4 °C
Punto de rocio: 13 °C 10.9 °C 12.1 °C
Humedad: 76% 56.8% 67%
Velocidad viento: 8.7km/h 0km/h 4.3km/h
Racha viento: 17.7km/h - -
Viento- - Sur
Presión: 1014.1 hPa 1007.9 hPa -
Precipitación: 1.2 mm    
 
 
Tabla de datos para Octubre 20, 2019
Hora Temperatura Punto de rocio Presión Viento Velocidad viento Racha viento Humedad Intensidad lluvia(por hora) Nubes
14:14 18 °C 13 °C 1007.9 hPa NE 2.9 km/h 2.9 km/h 72.5% 0.0 mm
14:19 18.1 °C 12.8 °C 1010.3 hPa NE 2.9 km/h 5.6 km/h 71.5% 0.0 mm
14:24 18.1 °C 12.9 °C 1009.0 hPa ONO 2.9 km/h 8.7 km/h 71.8% 0.0 mm
14:29 18.2 °C 12.9 °C 1009.0 hPa ONO 2.9 km/h 11.1 km/h 71.4% 0.0 mm
14:34 18.3 °C 13 °C 1009.0 hPa NO 4.7 km/h 11.3 km/h 71.2% 0.0 mm
14:39 18.3 °C 12.8 °C 1009.0 hPa ONO 5 km/h 9.7 km/h 70.3% 0.0 mm
14:44 18.3 °C 12.6 °C 1009.0 hPa Oeste 5 km/h 9.7 km/h 69.6% 0.0 mm
14:49 18.3 °C 12.7 °C 1009.0 hPa Oeste 5 km/h 9.3 km/h 69.8% 0.0 mm
14:54 18.3 °C 12.3 °C 1009.0 hPa Sur 5 km/h 11.1 km/h 68.2% 0.0 mm
14:59 18.3 °C 12.2 °C 1008.7 hPa Sur 5 km/h 11.9 km/h 67.8% 0.0 mm
15:04 18.4 °C 12.5 °C 1008.7 hPa SSO 6.7 km/h 13 km/h 68.9% 0.0 mm
15:09 18.3 °C 12.3 °C 1009.5 hPa Sur 6.9 km/h 12.9 km/h 67.9% 0.0 mm
15:14 18.5 °C 12.3 °C 1009.5 hPa ESE 6.5 km/h 9.7 km/h 67.3% 0.0 mm
15:19 18.6 °C 11.8 °C 1009.5 hPa OSO 6.5 km/h 14.8 km/h 64.7% 0.0 mm
15:24 18.7 °C 12.2 °C 1009.5 hPa Oeste 5.9 km/h 17.2 km/h 65.9% 0.0 mm
15:29 18.7 °C 12.4 °C 1009.3 hPa ONO 5.8 km/h 17.7 km/h 66.9% 0.0 mm
15:34 18.7 °C 12.6 °C 1009.3 hPa NNO 6.7 km/h 11.9 km/h 67.5% 0.0 mm
15:39 18.6 °C 12.8 °C 1009.3 hPa ONO 6.9 km/h 11.3 km/h 69.1% 0.0 mm
15:44 18.5 °C 12.8 °C 1008.9 hPa Oeste 6 km/h 11.3 km/h 69.2% 0.0 mm
15:49 18.4 °C 12.5 °C 1008.9 hPa OSO 5.8 km/h 11.3 km/h 68.6% 0.0 mm
15:54 18.4 °C 12.3 °C 1009.1 hPa OSO 4.2 km/h 8 km/h 67.6% 0.0 mm
15:59 18.5 °C 12.4 °C 1009.1 hPa ONO 3.9 km/h 8.4 km/h 67.5% 0.0 mm
16:04 18.6 °C 12.6 °C 1009.1 hPa ONO 3.9 km/h 8 km/h 68.1% 0.0 mm
16:09 18.6 °C 12.6 °C 1009.1 hPa Oeste 3.9 km/h 8 km/h 68% 0.0 mm
16:14 18.7 °C 12.6 °C 1009.0 hPa ONO 3.3 km/h 7.4 km/h 67.9% 0.0 mm
16:19 18.7 °C 12.6 °C 1009.0 hPa Oeste 3.2 km/h 11.1 km/h 67.8% 0.0 mm
16:24 18.7 °C 12.6 °C 1009.4 hPa ONO 5.4 km/h 11.3 km/h 67.7% 0.0 mm
16:29 18.7 °C 12.6 °C 1009.4 hPa Oeste 5.8 km/h 13 km/h 67.3% 0.0 mm
16:34 18.8 °C 12.5 °C 1009.4 hPa Oeste 6.7 km/h 12.9 km/h 66.8% 0.0 mm
16:39 18.9 °C 12.4 °C 1009.4 hPa OSO 6.9 km/h 11.3 km/h 65.8% 0.0 mm
16:44 19.1 °C 12.4 °C 1009.3 hPa Sur 6 km/h 11.3 km/h 65% 0.0 mm
16:49 19.2 °C 12.2 °C 1009.3 hPa SSO 5.8 km/h 8.4 km/h 64.1% 0.0 mm
16:54 19.3 °C 12.2 °C 1009.3 hPa SSO 4.1 km/h 8 km/h 63.6% 0.0 mm
16:59 19.5 °C 12.2 °C 1009.2 hPa ESE 3.9 km/h 7.4 km/h 63% 0.0 mm
17:04 19.6 °C 11.9 °C 1009.2 hPa Sur 3.3 km/h 9.5 km/h 61.1% 0.0 mm
17:09 19.7 °C 11.4 °C 1009.6 hPa SO 3.2 km/h 12.2 km/h 59% 0.0 mm
17:14 19.7 °C 11.2 °C 1009.6 hPa Oeste 6.4 km/h 13 km/h 57.9% 0.0 mm
17:19 19.7 °C 11.1 °C 1009.6 hPa NNO 6.9 km/h 9.7 km/h 57.5% 0.0 mm
17:24 19.8 °C 12.1 °C 1009.6 hPa ENE 3.6 km/h 7.4 km/h 61.2% 0.0 mm
17:29 19.8 °C 12.9 °C 1009.6 hPa Sur 2.9 km/h 8 km/h 64.6% 0.0 mm
17:34 19.7 °C 12.7 °C 1009.6 hPa SSO 3.7 km/h 9.3 km/h 63.7% 0.0 mm
17:39 19.7 °C 12.3 °C 1009.8 hPa SO 3.9 km/h 9.7 km/h 62.3% 0.0 mm
17:44 19.7 °C 11.8 °C 1009.8 hPa ONO 3.9 km/h 8 km/h 60.2% 0.0 mm
17:49 19.7 °C 11.1 °C 1009.8 hPa Oeste 3.9 km/h 8 km/h 57.5% 0.0 mm
17:54 19.8 °C 11 °C 1009.8 hPa Oeste 3 km/h 4.8 km/h 56.8% 0.0 mm
17:59 20.1 °C 11.2 °C 1009.6 hPa Oeste 2.9 km/h 7.4 km/h 56.9% 0.0 mm
18:04 20.2 °C 12.4 °C 1009.6 hPa ESE 2.9 km/h 8 km/h 61% 0.0 mm
18:09 20 °C 12.6 °C 1009.6 hPa SE 2.9 km/h 11.1 km/h 62.3% 0.0 mm
18:14 19.8 °C 12.8 °C 1009.6 hPa SE 5.9 km/h 13.7 km/h 64.1% 0.0 mm
18:19 19.6 °C 12.7 °C 1009.6 hPa SE 6.5 km/h 14.5 km/h 64.6% 0.0 mm
18:24 19.4 °C 12.5 °C 1009.8 hPa SSE 7.4 km/h 12.9 km/h 64.1% 0.0 mm
18:29 19.4 °C 12.4 °C 1009.8 hPa SSE 7.6 km/h 11.1 km/h 64.1% 0.0 mm
18:34 19.4 °C 12.4 °C 1009.8 hPa SSE 6.6 km/h 11.3 km/h 64% 0.0 mm
18:39 19.4 °C 12.3 °C 1010.1 hPa Sur 6.5 km/h 9.7 km/h 63.5% 0.0 mm
18:44 19.6 °C 12.4 °C 1010.1 hPa SSO 5.2 km/h 8 km/h 63% 0.0 mm
18:49 19.8 °C 12.1 °C 1010.1 hPa OSO 5 km/h 5.8 km/h 61.2% 0.0 mm
18:54 20 °C 12.1 °C 1010.1 hPa SO 3.5 km/h 8.7 km/h 60.3% 0.0 mm
18:59 20.1 °C 11.7 °C 1009.9 hPa OSO 3.2 km/h 9.7 km/h 58.5% 0.0 mm
19:04 20.1 °C 12 °C 1009.9 hPa Oeste 4.8 km/h 9.7 km/h 59.7% 0.0 mm
19:09 19.9 °C 11.9 °C 1010.1 hPa Oeste 5 km/h 8 km/h 59.9% 0.0 mm
19:14 19.8 °C 11.3 °C 1010.1 hPa OSO 3.5 km/h 9.5 km/h 57.9% 0.0 mm
19:19 19.7 °C 11 °C 1010.1 hPa SO 3.2 km/h 9.7 km/h 56.9% 0.0 mm
19:24 19.7 °C 10.9 °C 1010.7 hPa Sur 4.4 km/h 8.7 km/h 56.8% 0.0 mm
19:29 19.7 °C 11.2 °C 1010.7 hPa SE 4.7 km/h 9.7 km/h 57.9% 0.0 mm
19:34 19.6 °C 12.2 °C 1010.7 hPa SE 4.9 km/h 15.6 km/h 62.1% 0.0 mm
19:39 19.2 °C 12.5 °C 1010.9 hPa SSE 5 km/h 16.1 km/h 65% 0.0 mm
19:44 18.9 °C 12.4 °C 1010.9 hPa Sur 8.2 km/h 13 km/h 65.9% 0.0 mm
19:49 18.8 °C 12.1 °C 1010.9 hPa SSO 8.7 km/h 12.9 km/h 65.2% 0.0 mm
19:54 18.8 °C 12.1 °C 1010.9 hPa SO 7.8 km/h 11.3 km/h 65% 0.0 mm
19:59 18.8 °C 11.9 °C 1010.9 hPa SO 7.6 km/h 9.7 km/h 64.3% 0.0 mm
20:04 18.8 °C 11.8 °C 1010.9 hPa SO 6 km/h 9.7 km/h 63.8% 0.0 mm
20:09 18.8 °C 11.7 °C 1011.0 hPa SSO 5.8 km/h 9.7 km/h 63% 0.0 mm
20:14 18.9 °C 11.5 °C 1011.0 hPa SSO 5.1 km/h 10 km/h 62.2% 0.0 mm
20:19 19 °C 11.4 °C 1011.0 hPa SSO 5 km/h 9.7 km/h 61.5% 0.0 mm
20:24 19.1 °C 11.4 °C 1011.5 hPa SSE 5.7 km/h 9.7 km/h 61.1% 0.0 mm
20:29 19.1 °C 11.7 °C 1011.5 hPa SE 5.8 km/h 11.1 km/h 62% 0.0 mm
20:34 18.9 °C 11.9 °C 1011.5 hPa SE 6.3 km/h 11.3 km/h 64.1% 0.0 mm
20:39 18.6 °C 11.6 °C 1011.5 hPa SSE 6.5 km/h 9.7 km/h 63.8% 0.0 mm
20:44 18.5 °C 11.4 °C 1011.5 hPa Sur 5.9 km/h 9.7 km/h 63.4% 0.0 mm
20:49 18.4 °C 11.3 °C 1011.5 hPa Sur 5.8 km/h 8 km/h 63.2% 0.0 mm
20:54 18.4 °C 11.3 °C 1011.6 hPa Sur 4.8 km/h 8 km/h 63.2% 0.0 mm
20:59 18.4 °C 11.7 °C 1011.6 hPa Sur 4.7 km/h 5.8 km/h 64.8% 0.0 mm
21:04 18.4 °C 11.7 °C 1011.6 hPa Sur 3.3 km/h 7.4 km/h 65% 0.0 mm
21:09 18.4 °C 11.7 °C 1012.0 hPa SSE 3.2 km/h 8 km/h 65.1% 0.0 mm
21:14 18.4 °C 11.9 °C 1012.0 hPa SSE 4.5 km/h 8 km/h 65.9% 0.0 mm
21:19 18.4 °C 11.9 °C 1012.0 hPa SSE 4.7 km/h 6.4 km/h 66.1% 0.0 mm
21:24 18.3 °C 12 °C 1012.1 hPa SSE 2.6 km/h 3.2 km/h 67% 0.0 mm
21:29 18.2 °C 12 °C 1012.1 hPa SSE 2.2 km/h 3.9 km/h 67.3% 0.0 mm
21:34 18.1 °C 12.2 °C 1012.1 hPa SSE 0.4 km/h 5 km/h 68.6% 0.0 mm
21:39 17.9 °C 12.1 °C 1012.3 hPa Calm   5.6 km/h 69% 0.0 mm
21:44 17.8 °C 12.2 °C 1012.3 hPa NO 2.7 km/h 4.8 km/h 69.8% 0.0 mm
21:49 17.6 °C 12.3 °C 1012.3 hPa North 3.2 km/h 7.6 km/h 71% 0.0 mm
21:54 17.3 °C 12.2 °C 1012.7 hPa NE 3.8 km/h 8 km/h 72.1% 0.0 mm
21:59 17.1 °C 12.3 °C 1012.7 hPa North 3.9 km/h 8 km/h 73.3% 0.0 mm
22:04 17 °C 12.3 °C 1012.7 hPa NNE 3.9 km/h 8 km/h 74% 0.0 mm
22:09 16.9 °C 12.2 °C 1012.8 hPa NNE 3.9 km/h 4.7 km/h 74% 0.0 mm
22:14 16.9 °C 12.2 °C 1012.8 hPa NNE 2.5 km/h 5.8 km/h 73.7% 0.0 mm
22:19 16.9 °C 12.2 °C 1012.8 hPa NNE 2.2 km/h 6.4 km/h 74% 0.0 mm
22:24 16.8 °C 12.1 °C 1013.0 hPa NNE 3.1 km/h 5.6 km/h 73.8% 0.0 mm
22:29 16.8 °C 11.9 °C 1013.0 hPa NNE 3.2 km/h 4.8 km/h 73% 0.0 mm
22:34 16.8 °C 12 °C 1013.0 hPa NNE 2.4 km/h   73.3% 0.0 mm
22:39 16.7 °C 12 °C 1013.3 hPa NNE 2.2 km/h 2.3 km/h 73.6% 0.0 mm
22:44 16.8 °C 12.2 °C 1013.3 hPa NNE 0.3 km/h 2.3 km/h 74.4% 0.0 mm
22:49 16.8 °C 12.1 °C 1013.3 hPa Calm   3.7 km/h 74.1% 0.0 mm
22:54 16.8 °C 12 °C 1013.5 hPa Calm   3.2 km/h 73.3% 0.0 mm
22:59 16.8 °C 12.2 °C 1013.5 hPa Calm   5.8 km/h 74.2% 0.0 mm
23:04 16.7 °C 11.9 °C 1013.5 hPa NE 2 km/h 6.4 km/h 73.1% 0.0 mm
23:09 16.7 °C 11.8 °C 1013.9 hPa NE 2.2 km/h 6.4 km/h 72.9% 0.0 mm
23:14 16.6 °C 11.8 °C 1013.9 hPa ENE 2.8 km/h 8 km/h 73.2% 0.0 mm
23:19 16.4 °C 11.7 °C 1013.9 hPa ENE 2.9 km/h 8 km/h 73.5% 0.0 mm
23:24 16.3 °C 11.4 °C 1014.0 hPa ENE 3.2 km/h 7.4 km/h 72.9% 0.0 mm
23:29 16.2 °C 11.3 °C 1014.0 hPa Este 3.2 km/h 8 km/h 73% 0.0 mm
23:34 16.1 °C 11.3 °C 1014.0 hPa Este 3.8 km/h 7.4 km/h 73.2% 0.0 mm
23:39 16 °C 11.4 °C 1014.1 hPa Este 3.9 km/h 8 km/h 74% 0.0 mm
23:44 15.9 °C 11.4 °C 1014.1 hPa Este 3.3 km/h 6.4 km/h 74.7% 0.0 mm
23:49 15.8 °C 11.5 °C 1014.1 hPa Este 3.2 km/h 6.4 km/h 75.8% 0.0 mm
23:54 15.8 °C 11.5 °C 1014.1 hPa ESE 3.2 km/h 8 km/h 76% 0.0 mm
23:59 15.7 °C 11.4 °C 1013.9 hPa SSE 3.2 km/h 11.9 km/h 75.6% 0.0 mm
Murcia-Puente Tocinos, España
Compliments of Weather Underground - 2 mb

La estación de MeteoMurcia.com, publica sus datos en los siguientes proyectos:

Weather Underground PWS IMURCIAP2 Meteoclimatic www.awekas.at

W3Counter
Web Analytics